Elmer City, Washington
Current Conditions -  °F | °C
As of 5:53 PM on Tuesday 21 Oct 2014 (Local Time) from KOMK Reporting Station
Broken Clouds Broken Clouds  
Wind Chill: 59°   Ceiling: 9000
Heat Index: 59°   Visibility: 10mi
Dew Point: 45°   Wind: 12mph
Humidity: 60%   Direction: 160°SSE
Pressure: 29.87"   Gusts: NA
Location:  48°N, 118.95°W
Report Text: KOMK 220053Z AUTO 16010KT 10SM BKN090 15/07 A2987 RMK AO2 SLP116 T01500072
Loading
Personal Weather Stations






























Interactive Weather Map New forecast layout! Learn more

10-Day Weather Forecast

Advertisements
Track Severe Weather on mobile